Main page
METAR-TAF:

METAR-TAF

Airports :

Kullu–Manali Airport

Kullu / Manali, India

latitude: 31-52-36N, longitude: 77-09-16E, elevation: 1089 m

Current weather observation

The report was made 21 minutes ago, at 05:00 UTC
Calm wind
Temperature 22°C
Humidity 50%
Pressure 1013 hPa
Visibility: 6000 m

METAR: VIBR 200500Z 00000KT 6000 NSC 22/11 Q1013

Time: 10:51 (05:21 UTC)

Forecast

The report was made 6 hours and 21 minutes ago, at 23:00 UTC
Forecast valid from 20 at 00 UTC to 20 at 09 UTC
Wind kt from the North
Visibility: 1500 m
Few clouds at a height of 10000 ft
mist
Becoming
from 20 at 05 UTC to 20 at 07 UTC
Wind 6 kt from the West
Visibility: 4000 m
Scattered clouds at a height of 10000 ft
haze

TAF: VIBR 192300Z 2000/2009 00000KT 1500 BR FEW100 BECMG 2005/2007 27006KT 4000 HZ SCT100

Weather observations and forecasts of more than 4000 airports (METAR and TAF reports).

The available stations are represented by yellow and red dots on the map.

Hover mouse over dot to see the name of the station.

Then click to see weather observations and forecasts.

To change the map : click on the green buttons with a black cross to zoom in, on the green button with a dash to zoom out, or on the green arrows for adjacent maps.


METAR-TAF: